sensor_id;sensor_type;location;lat;lon;timestamp;temperature;humidity
20200;DHT22;36284;37.236;-121.934;2022-07-01T00:01:44;23.40;99.90
20200;DHT22;36284;37.236;-121.934;2022-07-01T00:04:12;24.10;99.90
20200;DHT22;36284;37.236;-121.934;2022-07-01T00:06:39;23.60;99.90
20200;DHT22;36284;37.236;-121.934;2022-07-01T00:09:06;23.90;99.90
20200;DHT22;36284;37.236;-121.934;2022-07-01T00:11:33;23.40;99.90
20200;DHT22;36284;37.236;-121.934;2022-07-01T00:14:00;23.90;99.90
20200;DHT22;36284;37.236;-121.934;2022-07-01T00:16:27;23.90;99.90
20200;DHT22;36284;37.236;-121.934;2022-07-01T00:18:54;24.20;99.90
20200;DHT22;36284;37.236;-121.934;2022-07-01T00:21:20;24.00;99.90
20200;DHT22;36284;37.236;-121.934;2022-07-01T00:23:47;23.50;99.90
20200;DHT22;36284;37.236;-121.934;2022-07-01T00:26:14;23.50;99.90
20200;DHT22;36284;37.236;-121.934;2022-07-01T00:28:41;22.70;99.90
20200;DHT22;36284;37.236;-121.934;2022-07-01T00:31:08;22.80;99.90
20200;DHT22;36284;37.236;-121.934;2022-07-01T00:33:35;23.10;99.90
20200;DHT22;36284;37.236;-121.934;2022-07-01T00:36:02;23.40;99.90
20200;DHT22;36284;37.236;-121.934;2022-07-01T00:38:29;23.40;99.90
20200;DHT22;36284;37.236;-121.934;2022-07-01T00:40:56;22.90;99.90
20200;DHT22;36284;37.236;-121.934;2022-07-01T00:43:23;23.20;99.90
20200;DHT22;36284;37.236;-121.934;2022-07-01T00:45:51;23.60;99.90
20200;DHT22;36284;37.236;-121.934;2022-07-01T00:48:20;23.30;99.90
20200;DHT22;36284;37.236;-121.934;2022-07-01T00:50:47;23.30;99.90
20200;DHT22;36284;37.236;-121.934;2022-07-01T00:53:15;23.10;99.90
20200;DHT22;36284;37.236;-121.934;2022-07-01T00:55:42;22.80;99.90
20200;DHT22;36284;37.236;-121.934;2022-07-01T00:58:09;23.20;99.90
20200;DHT22;36284;37.236;-121.934;2022-07-01T01:00:37;22.80;99.90
20200;DHT22;36284;37.236;-121.934;2022-07-01T01:03:07;22.50;99.90
20200;DHT22;36284;37.236;-121.934;2022-07-01T01:05:38;22.90;99.90
20200;DHT22;36284;37.236;-121.934;2022-07-01T01:08:08;22.70;99.90
20200;DHT22;36284;37.236;-121.934;2022-07-01T01:10:39;22.40;99.90
20200;DHT22;36284;37.236;-121.934;2022-07-01T01:13:08;22.50;99.90
20200;DHT22;36284;37.236;-121.934;2022-07-01T01:15:35;22.00;99.90
20200;DHT22;36284;37.236;-121.934;2022-07-01T01:18:03;22.00;99.90
20200;DHT22;36284;37.236;-121.934;2022-07-01T01:20:39;21.90;99.90
20200;DHT22;36284;37.236;-121.934;2022-07-01T01:23:06;22.40;99.90
20200;DHT22;36284;37.236;-121.934;2022-07-01T01:28:01;22.00;99.90
20200;DHT22;36284;37.236;-121.934;2022-07-01T01:30:28;21.60;99.90
20200;DHT22;36284;37.236;-121.934;2022-07-01T01:32:56;21.80;99.90
20200;DHT22;36284;37.236;-121.934;2022-07-01T01:35:23;21.50;99.90
20200;DHT22;36284;37.236;-121.934;2022-07-01T01:37:50;21.40;99.90
20200;DHT22;36284;37.236;-121.934;2022-07-01T01:40:18;21.60;99.90
20200;DHT22;36284;37.236;-121.934;2022-07-01T01:42:45;21.50;99.90
20200;DHT22;36284;37.236;-121.934;2022-07-01T01:45:13;20.90;99.90
20200;DHT22;36284;37.236;-121.934;2022-07-01T01:47:40;20.90;99.90
20200;DHT22;36284;37.236;-121.934;2022-07-01T01:50:08;21.40;99.90
20200;DHT22;36284;37.236;-121.934;2022-07-01T01:52:35;21.40;99.90
20200;DHT22;36284;37.236;-121.934;2022-07-01T01:55:04;21.40;99.90
20200;DHT22;36284;37.236;-121.934;2022-07-01T01:57:32;21.30;99.90
20200;DHT22;36284;37.236;-121.934;2022-07-01T01:59:59;21.00;99.90
20200;DHT22;36284;37.236;-121.934;2022-07-01T02:02:26;20.70;99.90
20200;DHT22;36284;37.236;-121.934;2022-07-01T02:04:53;20.80;99.90
20200;DHT22;36284;37.236;-121.934;2022-07-01T02:07:20;20.70;99.90
20200;DHT22;36284;37.236;-121.934;2022-07-01T02:09:46;20.90;99.90
20200;DHT22;36284;37.236;-121.934;2022-07-01T02:12:13;20.70;99.90
20200;DHT22;36284;37.236;-121.934;2022-07-01T02:14:40;20.30;99.90
20200;DHT22;36284;37.236;-121.934;2022-07-01T02:17:07;20.40;99.90
20200;DHT22;36284;37.236;-121.934;2022-07-01T02:19:34;20.10;99.90
20200;DHT22;36284;37.236;-121.934;2022-07-01T02:22:01;19.60;99.90
20200;DHT22;36284;37.236;-121.934;2022-07-01T02:24:28;19.70;99.90
20200;DHT22;36284;37.236;-121.934;2022-07-01T02:26:55;20.00;99.90
20200;DHT22;36284;37.236;-121.934;2022-07-01T02:29:22;20.00;99.90
20200;DHT22;36284;37.236;-121.934;2022-07-01T02:31:49;19.80;99.90
20200;DHT22;36284;37.236;-121.934;2022-07-01T02:34:16;19.40;99.90
20200;DHT22;36284;37.236;-121.934;2022-07-01T02:36:42;19.40;99.90
20200;DHT22;36284;37.236;-121.934;2022-07-01T02:39:09;19.10;99.90
20200;DHT22;36284;37.236;-121.934;2022-07-01T02:41:36;19.30;99.90
20200;DHT22;36284;37.236;-121.934;2022-07-01T02:44:23;19.40;99.90
20200;DHT22;36284;37.236;-121.934;2022-07-01T02:46:50;19.50;99.90
20200;DHT22;36284;37.236;-121.934;2022-07-01T02:49:17;19.50;99.90
20200;DHT22;36284;37.236;-121.934;2022-07-01T02:51:44;19.30;99.90
20200;DHT22;36284;37.236;-121.934;2022-07-01T02:54:10;19.40;99.90
20200;DHT22;36284;37.236;-121.934;2022-07-01T02:56:37;19.40;99.90
20200;DHT22;36284;37.236;-121.934;2022-07-01T02:59:04;19.20;99.90
20200;DHT22;36284;37.236;-121.934;2022-07-01T03:01:31;19.00;99.90
20200;DHT22;36284;37.236;-121.934;2022-07-01T03:03:58;18.80;99.90
20200;DHT22;36284;37.236;-121.934;2022-07-01T03:06:25;18.90;99.90
20200;DHT22;36284;37.236;-121.934;2022-07-01T03:08:52;18.70;99.90
20200;DHT22;36284;37.236;-121.934;2022-07-01T03:11:19;18.80;99.90
20200;DHT22;36284;37.236;-121.934;2022-07-01T03:13:46;18.60;99.90
20200;DHT22;36284;37.236;-121.934;2022-07-01T03:16:13;18.50;99.90
20200;DHT22;36284;37.236;-121.934;2022-07-01T03:18:39;18.40;99.90
20200;DHT22;36284;37.236;-121.934;2022-07-01T03:21:06;18.40;99.90
20200;DHT22;36284;37.236;-121.934;2022-07-01T03:23:33;18.30;99.90
20200;DHT22;36284;37.236;-121.934;2022-07-01T03:26:00;18.20;99.90
20200;DHT22;36284;37.236;-121.934;2022-07-01T03:28:27;18.00;99.90
20200;DHT22;36284;37.236;-121.934;2022-07-01T03:30:54;17.90;99.90
20200;DHT22;36284;37.236;-121.934;2022-07-01T03:33:21;17.60;99.90
20200;DHT22;36284;37.236;-121.934;2022-07-01T03:35:48;17.50;99.90
20200;DHT22;36284;37.236;-121.934;2022-07-01T03:38:15;17.60;99.90
20200;DHT22;36284;37.236;-121.934;2022-07-01T03:40:42;17.30;99.90
20200;DHT22;36284;37.236;-121.934;2022-07-01T03:43:10;17.40;99.90
20200;DHT22;36284;37.236;-121.934;2022-07-01T03:45:36;17.20;99.90
20200;DHT22;36284;37.236;-121.934;2022-07-01T03:48:06;17.20;99.90
20200;DHT22;36284;37.236;-121.934;2022-07-01T03:50:33;16.90;99.90
20200;DHT22;36284;37.236;-121.934;2022-07-01T03:53:00;16.80;99.90
20200;DHT22;36284;37.236;-121.934;2022-07-01T03:55:45;16.90;99.90
20200;DHT22;36284;37.236;-121.934;2022-07-01T03:58:12;16.90;99.90
20200;DHT22;36284;37.236;-121.934;2022-07-01T04:00:39;16.70;99.90
20200;DHT22;36284;37.236;-121.934;2022-07-01T04:03:07;16.60;99.90
20200;DHT22;36284;37.236;-121.934;2022-07-01T04:05:35;16.70;99.90
20200;DHT22;36284;37.236;-121.934;2022-07-01T04:08:04;16.70;99.90
20200;DHT22;36284;37.236;-121.934;2022-07-01T04:10:33;16.50;99.90
20200;DHT22;36284;37.236;-121.934;2022-07-01T04:13:01;16.50;99.90
20200;DHT22;36284;37.236;-121.934;2022-07-01T04:15:28;16.50;99.90
20200;DHT22;36284;37.236;-121.934;2022-07-01T04:17:55;16.40;99.90
20200;DHT22;36284;37.236;-121.934;2022-07-01T04:20:22;16.40;99.90
20200;DHT22;36284;37.236;-121.934;2022-07-01T04:22:50;16.40;99.90
20200;DHT22;36284;37.236;-121.934;2022-07-01T04:25:17;16.30;99.90
20200;DHT22;36284;37.236;-121.934;2022-07-01T04:27:44;16.30;99.90
20200;DHT22;36284;37.236;-121.934;2022-07-01T04:30:11;16.30;99.90
20200;DHT22;36284;37.236;-121.934;2022-07-01T04:32:38;16.30;99.90
20200;DHT22;36284;37.236;-121.934;2022-07-01T04:35:06;16.20;99.90
20200;DHT22;36284;37.236;-121.934;2022-07-01T04:37:33;16.10;99.90
20200;DHT22;36284;37.236;-121.934;2022-07-01T04:39:59;16.20;99.90
20200;DHT22;36284;37.236;-121.934;2022-07-01T04:42:26;16.20;99.90
20200;DHT22;36284;37.236;-121.934;2022-07-01T04:44:53;16.20;99.90
20200;DHT22;36284;37.236;-121.934;2022-07-01T04:47:20;16.20;99.90
20200;DHT22;36284;37.236;-121.934;2022-07-01T04:49:48;16.20;99.90
20200;DHT22;36284;37.236;-121.934;2022-07-01T04:52:15;16.30;99.90
20200;DHT22;36284;37.236;-121.934;2022-07-01T04:54:42;16.10;99.90
20200;DHT22;36284;37.236;-121.934;2022-07-01T04:57:09;16.10;99.90
20200;DHT22;36284;37.236;-121.934;2022-07-01T04:59:36;16.20;99.90
20200;DHT22;36284;37.236;-121.934;2022-07-01T05:02:03;16.20;99.90
20200;DHT22;36284;37.236;-121.934;2022-07-01T05:04:30;16.30;99.90
20200;DHT22;36284;37.236;-121.934;2022-07-01T05:06:57;16.40;99.90
20200;DHT22;36284;37.236;-121.934;2022-07-01T05:09:24;16.40;99.90
20200;DHT22;36284;37.236;-121.934;2022-07-01T05:14:17;16.30;99.90
20200;DHT22;36284;37.236;-121.934;2022-07-01T05:16:44;16.20;99.90
20200;DHT22;36284;37.236;-121.934;2022-07-01T05:19:11;15.90;99.90
20200;DHT22;36284;37.236;-121.934;2022-07-01T05:21:57;15.90;99.90
20200;DHT22;36284;37.236;-121.934;2022-07-01T05:24:30;15.80;99.90
20200;DHT22;36284;37.236;-121.934;2022-07-01T05:26:58;15.90;99.90
20200;DHT22;36284;37.236;-121.934;2022-07-01T05:29:25;16.00;99.90
20200;DHT22;36284;37.236;-121.934;2022-07-01T05:31:52;16.00;99.90
20200;DHT22;36284;37.236;-121.934;2022-07-01T05:34:19;16.00;99.90
20200;DHT22;36284;37.236;-121.934;2022-07-01T05:36:46;16.10;99.90
20200;DHT22;36284;37.236;-121.934;2022-07-01T05:39:13;16.00;99.90
20200;DHT22;36284;37.236;-121.934;2022-07-01T05:41:40;16.00;99.90
20200;DHT22;36284;37.236;-121.934;2022-07-01T05:44:07;16.00;99.90
20200;DHT22;36284;37.236;-121.934;2022-07-01T05:46:34;16.00;99.90
20200;DHT22;36284;37.236;-121.934;2022-07-01T05:49:02;15.80;99.90
20200;DHT22;36284;37.236;-121.934;2022-07-01T05:51:29;15.60;99.90
20200;DHT22;36284;37.236;-121.934;2022-07-01T05:53:56;15.60;99.90
20200;DHT22;36284;37.236;-121.934;2022-07-01T05:56:24;15.70;99.90
20200;DHT22;36284;37.236;-121.934;2022-07-01T05:58:52;16.00;99.90
20200;DHT22;36284;37.236;-121.934;2022-07-01T06:01:19;16.00;99.90
20200;DHT22;36284;37.236;-121.934;2022-07-01T06:03:46;15.80;99.90
20200;DHT22;36284;37.236;-121.934;2022-07-01T06:06:13;15.80;99.90
20200;DHT22;36284;37.236;-121.934;2022-07-01T06:08:40;15.70;99.90
20200;DHT22;36284;37.236;-121.934;2022-07-01T06:11:07;15.60;99.90
20200;DHT22;36284;37.236;-121.934;2022-07-01T06:13:34;15.50;99.90
20200;DHT22;36284;37.236;-121.934;2022-07-01T06:16:01;15.40;99.90
20200;DHT22;36284;37.236;-121.934;2022-07-01T06:18:28;15.40;99.90
20200;DHT22;36284;37.236;-121.934;2022-07-01T06:20:55;15.60;99.90
20200;DHT22;36284;37.236;-121.934;2022-07-01T06:23:22;15.70;99.90
20200;DHT22;36284;37.236;-121.934;2022-07-01T06:25:49;15.80;99.90
20200;DHT22;36284;37.236;-121.934;2022-07-01T06:28:16;15.60;99.90
20200;DHT22;36284;37.236;-121.934;2022-07-01T06:30:46;15.60;99.90
20200;DHT22;36284;37.236;-121.934;2022-07-01T06:33:13;15.60;99.90
20200;DHT22;36284;37.236;-121.934;2022-07-01T06:35:41;15.60;99.90
20200;DHT22;36284;37.236;-121.934;2022-07-01T06:38:08;15.50;99.90
20200;DHT22;36284;37.236;-121.934;2022-07-01T06:40:34;15.40;99.90
20200;DHT22;36284;37.236;-121.934;2022-07-01T06:43:01;15.40;99.90
20200;DHT22;36284;37.236;-121.934;2022-07-01T06:45:28;15.30;99.90
20200;DHT22;36284;37.236;-121.934;2022-07-01T06:47:55;15.40;99.90
20200;DHT22;36284;37.236;-121.934;2022-07-01T06:50:22;15.30;99.90
20200;DHT22;36284;37.236;-121.934;2022-07-01T06:52:49;15.30;99.90
20200;DHT22;36284;37.236;-121.934;2022-07-01T06:55:16;15.20;99.90
20200;DHT22;36284;37.236;-121.934;2022-07-01T06:57:43;15.40;99.90
20200;DHT22;36284;37.236;-121.934;2022-07-01T07:00:10;15.50;99.90
20200;DHT22;36284;37.236;-121.934;2022-07-01T07:02:38;15.50;99.90
20200;DHT22;36284;37.236;-121.934;2022-07-01T07:05:06;15.60;99.90
20200;DHT22;36284;37.236;-121.934;2022-07-01T07:07:33;15.60;99.90
20200;DHT22;36284;37.236;-121.934;2022-07-01T07:10:00;15.60;99.90
20200;DHT22;36284;37.236;-121.934;2022-07-01T07:12:27;15.40;99.90
20200;DHT22;36284;37.236;-121.934;2022-07-01T07:14:54;15.50;99.90
20200;DHT22;36284;37.236;-121.934;2022-07-01T07:17:21;15.20;99.90
20200;DHT22;36284;37.236;-121.934;2022-07-01T07:19:48;15.20;99.90
20200;DHT22;36284;37.236;-121.934;2022-07-01T07:22:15;15.30;99.90
20200;DHT22;36284;37.236;-121.934;2022-07-01T07:24:41;15.30;99.90
20200;DHT22;36284;37.236;-121.934;2022-07-01T07:27:08;15.10;99.90
20200;DHT22;36284;37.236;-121.934;2022-07-01T07:29:35;15.10;99.90
20200;DHT22;36284;37.236;-121.934;2022-07-01T07:32:02;15.20;99.90
20200;DHT22;36284;37.236;-121.934;2022-07-01T07:34:29;15.10;99.90
20200;DHT22;36284;37.236;-121.934;2022-07-01T07:36:56;15.10;99.90
20200;DHT22;36284;37.236;-121.934;2022-07-01T07:39:23;15.20;99.90
20200;DHT22;36284;37.236;-121.934;2022-07-01T07:41:50;15.10;99.90
20200;DHT22;36284;37.236;-121.934;2022-07-01T07:44:17;15.10;99.90
20200;DHT22;36284;37.236;-121.934;2022-07-01T07:46:44;15.20;99.90
20200;DHT22;36284;37.236;-121.934;2022-07-01T07:49:11;15.20;99.90
20200;DHT22;36284;37.236;-121.934;2022-07-01T07:51:37;15.20;99.90
20200;DHT22;36284;37.236;-121.934;2022-07-01T07:54:04;15.20;99.90
20200;DHT22;36284;37.236;-121.934;2022-07-01T07:56:31;15.00;99.90
20200;DHT22;36284;37.236;-121.934;2022-07-01T07:58:58;15.00;99.90
20200;DHT22;36284;37.236;-121.934;2022-07-01T08:01:26;14.90;99.90
20200;DHT22;36284;37.236;-121.934;2022-07-01T08:03:53;14.90;99.90
20200;DHT22;36284;37.236;-121.934;2022-07-01T08:06:20;14.80;99.90
20200;DHT22;36284;37.236;-121.934;2022-07-01T08:08:47;14.80;99.90
20200;DHT22;36284;37.236;-121.934;2022-07-01T08:11:13;14.70;99.90
20200;DHT22;36284;37.236;-121.934;2022-07-01T08:13:40;14.60;99.90
20200;DHT22;36284;37.236;-121.934;2022-07-01T08:16:10;14.70;99.90
20200;DHT22;36284;37.236;-121.934;2022-07-01T08:18:37;14.60;99.90
20200;DHT22;36284;37.236;-121.934;2022-07-01T08:21:04;14.70;99.90
20200;DHT22;36284;37.236;-121.934;2022-07-01T08:23:31;14.50;99.90
20200;DHT22;36284;37.236;-121.934;2022-07-01T08:25:58;14.60;99.90
20200;DHT22;36284;37.236;-121.934;2022-07-01T08:28:25;14.70;99.90
20200;DHT22;36284;37.236;-121.934;2022-07-01T08:30:52;14.70;99.90
20200;DHT22;36284;37.236;-121.934;2022-07-01T08:33:18;14.60;99.90
20200;DHT22;36284;37.236;-121.934;2022-07-01T08:35:45;14.60;99.90
20200;DHT22;36284;37.236;-121.934;2022-07-01T08:38:13;14.60;99.90
20200;DHT22;36284;37.236;-121.934;2022-07-01T08:40:40;14.70;99.90
20200;DHT22;36284;37.236;-121.934;2022-07-01T08:43:07;14.60;99.90
20200;DHT22;36284;37.236;-121.934;2022-07-01T08:45:35;14.60;99.90
20200;DHT22;36284;37.236;-121.934;2022-07-01T08:48:04;14.50;99.90
20200;DHT22;36284;37.236;-121.934;2022-07-01T08:50:35;14.60;99.90
20200;DHT22;36284;37.236;-121.934;2022-07-01T08:53:02;14.50;99.90
20200;DHT22;36284;37.236;-121.934;2022-07-01T08:55:30;14.50;99.90
20200;DHT22;36284;37.236;-121.934;2022-07-01T08:57:57;14.60;99.90
20200;DHT22;36284;37.236;-121.934;2022-07-01T09:00:31;14.50;99.90
20200;DHT22;36284;37.236;-121.934;2022-07-01T09:03:00;14.40;99.90
20200;DHT22;36284;37.236;-121.934;2022-07-01T09:05:29;14.50;99.90
20200;DHT22;36284;37.236;-121.934;2022-07-01T09:08:02;14.50;99.90
20200;DHT22;36284;37.236;-121.934;2022-07-01T09:10:31;14.40;99.90
20200;DHT22;36284;37.236;-121.934;2022-07-01T09:13:11;14.40;99.90
20200;DHT22;36284;37.236;-121.934;2022-07-01T09:15:40;14.60;99.90
20200;DHT22;36284;37.236;-121.934;2022-07-01T09:18:14;14.50;99.90
20200;DHT22;36284;37.236;-121.934;2022-07-01T09:20:46;14.50;99.90
20200;DHT22;36284;37.236;-121.934;2022-07-01T09:23:18;14.50;99.90
20200;DHT22;36284;37.236;-121.934;2022-07-01T09:25:50;14.50;99.90
20200;DHT22;36284;37.236;-121.934;2022-07-01T09:28:22;14.40;99.90
20200;DHT22;36284;37.236;-121.934;2022-07-01T09:30:52;14.40;99.90
20200;DHT22;36284;37.236;-121.934;2022-07-01T09:33:27;14.20;99.90
20200;DHT22;36284;37.236;-121.934;2022-07-01T09:35:56;14.30;99.90
20200;DHT22;36284;37.236;-121.934;2022-07-01T09:38:25;14.40;99.90
20200;DHT22;36284;37.236;-121.934;2022-07-01T09:41:01;14.50;99.90
20200;DHT22;36284;37.236;-121.934;2022-07-01T09:43:29;14.40;99.90
20200;DHT22;36284;37.236;-121.934;2022-07-01T09:50:57;14.10;99.90
20200;DHT22;36284;37.236;-121.934;2022-07-01T09:53:24;14.30;99.90
20200;DHT22;36284;37.236;-121.934;2022-07-01T09:55:51;14.30;99.90
20200;DHT22;36284;37.236;-121.934;2022-07-01T09:58:19;14.30;99.90
20200;DHT22;36284;37.236;-121.934;2022-07-01T10:00:46;14.30;99.90
20200;DHT22;36284;37.236;-121.934;2022-07-01T10:03:13;14.20;99.90
20200;DHT22;36284;37.236;-121.934;2022-07-01T10:05:53;14.30;99.90
20200;DHT22;36284;37.236;-121.934;2022-07-01T10:13:33;14.30;99.90
20200;DHT22;36284;37.236;-121.934;2022-07-01T10:16:03;14.20;99.90
20200;DHT22;36284;37.236;-121.934;2022-07-01T10:18:30;14.20;99.90
20200;DHT22;36284;37.236;-121.934;2022-07-01T10:20:58;14.30;99.90
20200;DHT22;36284;37.236;-121.934;2022-07-01T10:23:39;14.30;99.90
20200;DHT22;36284;37.236;-121.934;2022-07-01T10:26:06;14.30;99.90
20200;DHT22;36284;37.236;-121.934;2022-07-01T10:28:40;14.40;99.90
20200;DHT22;36284;37.236;-121.934;2022-07-01T10:31:16;14.30;99.90
20200;DHT22;36284;37.236;-121.934;2022-07-01T10:33:56;14.30;99.90
20200;DHT22;36284;37.236;-121.934;2022-07-01T10:36:29;14.40;99.90
20200;DHT22;36284;37.236;-121.934;2022-07-01T10:41:54;14.40;99.90
20200;DHT22;36284;37.236;-121.934;2022-07-01T10:44:23;14.40;99.90
20200;DHT22;36284;37.236;-121.934;2022-07-01T10:46:56;14.30;99.90
20200;DHT22;36284;37.236;-121.934;2022-07-01T10:52:14;14.40;99.90
20200;DHT22;36284;37.236;-121.934;2022-07-01T10:54:49;14.30;99.90
20200;DHT22;36284;37.236;-121.934;2022-07-01T11:02:39;14.30;99.90
20200;DHT22;36284;37.236;-121.934;2022-07-01T11:05:14;14.30;99.90
20200;DHT22;36284;37.236;-121.934;2022-07-01T11:07:43;14.30;99.90
20200;DHT22;36284;37.236;-121.934;2022-07-01T11:10:15;14.30;99.90
20200;DHT22;36284;37.236;-121.934;2022-07-01T11:12:43;14.30;99.90
20200;DHT22;36284;37.236;-121.934;2022-07-01T11:15:15;14.30;99.90
20200;DHT22;36284;37.236;-121.934;2022-07-01T11:17:48;14.40;99.90
20200;DHT22;36284;37.236;-121.934;2022-07-01T11:20:15;14.40;99.90
20200;DHT22;36284;37.236;-121.934;2022-07-01T11:22:43;14.40;99.90
20200;DHT22;36284;37.236;-121.934;2022-07-01T11:27:38;14.20;99.90
20200;DHT22;36284;37.236;-121.934;2022-07-01T11:30:10;14.20;99.90
20200;DHT22;36284;37.236;-121.934;2022-07-01T11:32:46;14.20;99.90
20200;DHT22;36284;37.236;-121.934;2022-07-01T11:35:19;14.20;99.90
20200;DHT22;36284;37.236;-121.934;2022-07-01T11:38:09;14.20;99.90
20200;DHT22;36284;37.236;-121.934;2022-07-01T11:40:56;14.10;99.90
20200;DHT22;36284;37.236;-121.934;2022-07-01T11:43:32;14.00;99.90
20200;DHT22;36284;37.236;-121.934;2022-07-01T11:46:01;14.00;99.90
20200;DHT22;36284;37.236;-121.934;2022-07-01T11:48:34;14.10;99.90
20200;DHT22;36284;37.236;-121.934;2022-07-01T11:51:06;14.20;99.90
20200;DHT22;36284;37.236;-121.934;2022-07-01T11:53:34;14.10;99.90
20200;DHT22;36284;37.236;-121.934;2022-07-01T11:56:01;14.10;99.90
20200;DHT22;36284;37.236;-121.934;2022-07-01T11:58:50;14.20;99.90
20200;DHT22;36284;37.236;-121.934;2022-07-01T12:01:28;14.20;99.90
20200;DHT22;36284;37.236;-121.934;2022-07-01T12:03:58;14.10;99.90
20200;DHT22;36284;37.236;-121.934;2022-07-01T12:06:26;14.10;99.90
20200;DHT22;36284;37.236;-121.934;2022-07-01T12:08:54;14.10;99.90
20200;DHT22;36284;37.236;-121.934;2022-07-01T12:11:25;14.00;99.90
20200;DHT22;36284;37.236;-121.934;2022-07-01T12:13:53;13.90;99.90
20200;DHT22;36284;37.236;-121.934;2022-07-01T12:16:21;13.90;99.90
20200;DHT22;36284;37.236;-121.934;2022-07-01T12:18:56;14.00;99.90
20200;DHT22;36284;37.236;-121.934;2022-07-01T12:21:24;13.90;99.90
20200;DHT22;36284;37.236;-121.934;2022-07-01T12:24:07;14.00;99.90
20200;DHT22;36284;37.236;-121.934;2022-07-01T12:26:34;13.90;99.90
20200;DHT22;36284;37.236;-121.934;2022-07-01T12:29:01;14.00;99.90
20200;DHT22;36284;37.236;-121.934;2022-07-01T12:31:28;13.90;99.90
20200;DHT22;36284;37.236;-121.934;2022-07-01T12:33:55;14.00;99.90
20200;DHT22;36284;37.236;-121.934;2022-07-01T12:36:22;14.10;99.90
20200;DHT22;36284;37.236;-121.934;2022-07-01T12:39:01;14.10;99.90
20200;DHT22;36284;37.236;-121.934;2022-07-01T12:41:31;14.10;99.90
20200;DHT22;36284;37.236;-121.934;2022-07-01T12:44:20;14.10;99.90
20200;DHT22;36284;37.236;-121.934;2022-07-01T12:46:47;14.10;99.90
20200;DHT22;36284;37.236;-121.934;2022-07-01T12:49:24;14.00;99.90
20200;DHT22;36284;37.236;-121.934;2022-07-01T12:51:53;14.00;99.90
20200;DHT22;36284;37.236;-121.934;2022-07-01T12:54:33;13.90;99.90
20200;DHT22;36284;37.236;-121.934;2022-07-01T12:57:00;13.80;99.90
20200;DHT22;36284;37.236;-121.934;2022-07-01T12:59:28;13.80;99.90
20200;DHT22;36284;37.236;-121.934;2022-07-01T13:01:55;13.80;99.90
20200;DHT22;36284;37.236;-121.934;2022-07-01T13:04:26;13.80;99.90
20200;DHT22;36284;37.236;-121.934;2022-07-01T13:06:53;13.90;99.90
20200;DHT22;36284;37.236;-121.934;2022-07-01T13:09:20;13.70;99.90
20200;DHT22;36284;37.236;-121.934;2022-07-01T13:11:47;13.80;99.90
20200;DHT22;36284;37.236;-121.934;2022-07-01T13:14:14;13.80;99.90
20200;DHT22;36284;37.236;-121.934;2022-07-01T13:16:41;13.90;99.90
20200;DHT22;36284;37.236;-121.934;2022-07-01T13:19:08;13.80;99.90
20200;DHT22;36284;37.236;-121.934;2022-07-01T13:21:35;13.80;99.90
20200;DHT22;36284;37.236;-121.934;2022-07-01T13:24:02;13.70;99.90
20200;DHT22;36284;37.236;-121.934;2022-07-01T13:26:29;13.80;99.90
20200;DHT22;36284;37.236;-121.934;2022-07-01T13:28:56;13.80;99.90
20200;DHT22;36284;37.236;-121.934;2022-07-01T13:31:23;13.70;99.90
20200;DHT22;36284;37.236;-121.934;2022-07-01T13:33:50;13.90;99.90
20200;DHT22;36284;37.236;-121.934;2022-07-01T13:36:16;13.90;99.90
20200;DHT22;36284;37.236;-121.934;2022-07-01T13:38:43;14.00;99.90
20200;DHT22;36284;37.236;-121.934;2022-07-01T13:41:10;14.00;99.90
20200;DHT22;36284;37.236;-121.934;2022-07-01T13:43:37;14.10;99.90
20200;DHT22;36284;37.236;-121.934;2022-07-01T13:46:04;14.10;99.90
20200;DHT22;36284;37.236;-121.934;2022-07-01T13:48:31;14.10;99.90
20200;DHT22;36284;37.236;-121.934;2022-07-01T13:50:58;14.20;99.90
20200;DHT22;36284;37.236;-121.934;2022-07-01T13:53:25;14.30;99.90
20200;DHT22;36284;37.236;-121.934;2022-07-01T13:55:52;14.20;99.90
20200;DHT22;36284;37.236;-121.934;2022-07-01T13:58:18;14.20;99.90
20200;DHT22;36284;37.236;-121.934;2022-07-01T14:00:45;14.20;99.90
20200;DHT22;36284;37.236;-121.934;2022-07-01T14:03:12;14.20;99.90
20200;DHT22;36284;37.236;-121.934;2022-07-01T14:05:39;14.20;99.90
20200;DHT22;36284;37.236;-121.934;2022-07-01T14:08:06;14.40;99.90
20200;DHT22;36284;37.236;-121.934;2022-07-01T14:10:33;14.40;99.90
20200;DHT22;36284;37.236;-121.934;2022-07-01T14:13:03;14.30;99.90
20200;DHT22;36284;37.236;-121.934;2022-07-01T14:15:30;14.40;99.90
20200;DHT22;36284;37.236;-121.934;2022-07-01T14:17:57;14.60;99.90
20200;DHT22;36284;37.236;-121.934;2022-07-01T14:20:24;14.80;99.90
20200;DHT22;36284;37.236;-121.934;2022-07-01T14:22:52;15.20;99.90
20200;DHT22;36284;37.236;-121.934;2022-07-01T14:25:21;15.20;99.90
20200;DHT22;36284;37.236;-121.934;2022-07-01T14:27:49;15.40;99.90
20200;DHT22;36284;37.236;-121.934;2022-07-01T14:30:16;17.50;99.90
20200;DHT22;36284;37.236;-121.934;2022-07-01T14:32:45;17.90;99.90
20200;DHT22;36284;37.236;-121.934;2022-07-01T14:35:12;17.70;99.90
20200;DHT22;36284;37.236;-121.934;2022-07-01T14:37:39;18.00;99.90
20200;DHT22;36284;37.236;-121.934;2022-07-01T14:40:09;19.80;99.90
20200;DHT22;36284;37.236;-121.934;2022-07-01T14:42:36;19.40;99.90
20200;DHT22;36284;37.236;-121.934;2022-07-01T14:45:04;18.90;99.90
20200;DHT22;36284;37.236;-121.934;2022-07-01T14:47:31;18.50;99.90
20200;DHT22;36284;37.236;-121.934;2022-07-01T14:49:59;18.20;99.90
20200;DHT22;36284;37.236;-121.934;2022-07-01T14:52:26;18.70;99.90
20200;DHT22;36284;37.236;-121.934;2022-07-01T14:54:53;18.10;99.90
20200;DHT22;36284;37.236;-121.934;2022-07-01T14:57:20;17.50;99.90
20200;DHT22;36284;37.236;-121.934;2022-07-01T14:59:47;18.10;99.90
20200;DHT22;36284;37.236;-121.934;2022-07-01T15:02:15;19.30;99.90
20200;DHT22;36284;37.236;-121.934;2022-07-01T15:04:42;19.60;99.90
20200;DHT22;36284;37.236;-121.934;2022-07-01T15:07:09;19.10;99.90
20200;DHT22;36284;37.236;-121.934;2022-07-01T15:09:36;19.70;99.90
20200;DHT22;36284;37.236;-121.934;2022-07-01T15:12:03;19.00;99.90
20200;DHT22;36284;37.236;-121.934;2022-07-01T15:14:30;19.60;99.90
20200;DHT22;36284;37.236;-121.934;2022-07-01T15:16:57;19.60;99.90
20200;DHT22;36284;37.236;-121.934;2022-07-01T15:19:27;19.80;99.90
20200;DHT22;36284;37.236;-121.934;2022-07-01T15:21:55;20.60;99.90
20200;DHT22;36284;37.236;-121.934;2022-07-01T15:24:23;20.70;99.90